createdAt,value
2023-02-13T00:00:22.769Z,59.30
2023-02-13T00:02:49.462Z,55.28
2023-02-13T00:05:16.195Z,54.28
2023-02-13T00:07:42.799Z,56.88
2023-02-13T00:10:09.863Z,52.00
2023-02-13T00:12:36.475Z,46.03
2023-02-13T00:15:03.720Z,49.03
2023-02-13T00:17:30.521Z,49.42
2023-02-13T00:19:57.181Z,44.33
2023-02-13T00:22:24.444Z,40.38
2023-02-13T00:24:51.190Z,37.05
2023-02-13T00:27:17.957Z,31.52
2023-02-13T00:29:44.536Z,37.58
2023-02-13T00:32:11.275Z,29.30
2023-02-13T00:34:37.981Z,27.52
2023-02-13T00:37:04.605Z,34.65
2023-02-13T00:39:31.289Z,25.73
2023-02-13T00:41:57.865Z,28.65
2023-02-13T00:44:24.477Z,24.77
2023-02-13T00:46:51.085Z,22.70
2023-02-13T00:49:17.700Z,18.30
2023-02-13T00:51:44.431Z,16.35
2023-02-13T00:54:11.055Z,12.73
2023-02-13T00:56:38.396Z,18.00
2023-02-13T00:59:05.048Z,11.73
2023-02-13T01:01:31.646Z,17.25
2023-02-13T01:03:58.495Z,15.50
2023-02-13T01:06:25.487Z,12.25
2023-02-13T01:08:52.046Z,11.60
2023-02-13T01:11:19.401Z,13.15
2023-02-13T01:13:46.636Z,14.75
2023-02-13T01:16:15.918Z,12.63
2023-02-13T01:18:42.656Z,13.30
2023-02-13T01:21:17.070Z,8.73
2023-02-13T01:23:44.348Z,15.43
2023-02-13T01:26:16.901Z,8.93
2023-02-13T01:28:43.634Z,12.32
2023-02-13T01:31:10.350Z,13.57
2023-02-13T01:33:36.964Z,15.07
2023-02-13T01:36:11.136Z,16.10
2023-02-13T01:38:38.074Z,12.45
2023-02-13T01:41:04.842Z,12.50
2023-02-13T01:44:25.992Z,12.50
2023-02-13T01:46:52.715Z,16.77
2023-02-13T01:49:23.654Z,14.35
2023-02-13T01:51:55.539Z,8.75
2023-02-13T01:54:31.070Z,11.95
2023-02-13T01:57:10.104Z,11.68
2023-02-13T02:00:21.152Z,14.10
2023-02-13T02:02:55.384Z,10.38
2023-02-13T02:05:26.757Z,13.52
2023-02-13T02:07:54.705Z,8.67
2023-02-13T02:10:21.700Z,7.82
2023-02-13T02:13:09.071Z,13.07
2023-02-13T02:15:35.694Z,9.93
2023-02-13T02:18:02.321Z,10.35
2023-02-13T02:20:44.042Z,11.40
2023-02-13T02:23:13.516Z,13.07
2023-02-13T02:26:25.692Z,10.27
2023-02-13T02:29:29.314Z,12.37
2023-02-13T02:32:16.756Z,10.63
2023-02-13T02:35:08.975Z,14.13
2023-02-13T02:37:53.626Z,13.50
2023-02-13T02:40:29.588Z,15.60
2023-02-13T02:43:02.457Z,19.13
2023-02-13T02:45:48.663Z,17.35
2023-02-13T02:48:43.222Z,20.58
2023-02-13T02:51:26.717Z,16.55
2023-02-13T02:53:53.299Z,25.23
2023-02-13T02:56:31.466Z,21.67
2023-02-13T02:59:34.379Z,25.20
2023-02-13T03:05:10.124Z,26.70
2023-02-13T03:07:36.724Z,20.83
2023-02-13T03:10:27.368Z,21.80
2023-02-13T03:13:48.278Z,23.95
2023-02-13T03:16:39.194Z,27.30
2023-02-13T03:19:31.528Z,24.15
2023-02-13T03:22:20.957Z,29.05
2023-02-13T03:25:10.995Z,25.20
2023-02-13T03:28:09.662Z,24.65
2023-02-13T03:30:44.629Z,27.40
2023-02-13T03:33:36.036Z,27.15
2023-02-13T03:36:41.640Z,28.10
2023-02-13T03:39:20.326Z,31.00
2023-02-13T03:42:00.850Z,23.05
2023-02-13T03:44:30.412Z,27.95
2023-02-13T03:47:00.644Z,29.17
2023-02-13T03:49:54.850Z,33.80
2023-02-13T03:52:30.531Z,27.60
2023-02-13T03:55:24.305Z,28.23
2023-02-13T03:58:14.279Z,26.10
2023-02-13T04:00:46.909Z,28.15
2023-02-13T04:03:26.744Z,31.65
2023-02-13T04:06:02.587Z,30.35
2023-02-13T04:08:29.702Z,30.88
2023-02-13T04:11:11.955Z,32.90
2023-02-13T04:13:51.250Z,27.58
2023-02-13T04:16:40.552Z,28.88
2023-02-13T04:19:09.009Z,30.27
2023-02-13T04:21:37.624Z,29.83
2023-02-13T04:24:04.701Z,25.90
2023-02-13T04:26:41.633Z,27.55
2023-02-13T04:29:09.206Z,26.27
2023-02-13T04:31:36.006Z,27.27
2023-02-13T04:34:02.760Z,23.90
2023-02-13T04:36:29.491Z,24.23
2023-02-13T04:38:56.151Z,20.98
2023-02-13T04:41:22.915Z,22.48
2023-02-13T04:43:49.523Z,22.40
2023-02-13T04:46:16.199Z,20.88
2023-02-13T04:48:42.809Z,20.42
2023-02-13T04:51:09.402Z,18.83
2023-02-13T04:53:36.204Z,18.80
2023-02-13T04:56:02.877Z,18.48
2023-02-13T04:58:29.463Z,20.60
2023-02-13T05:00:56.514Z,19.33
2023-02-13T05:03:23.307Z,19.92
2023-02-13T05:05:49.916Z,16.52
2023-02-13T05:08:16.734Z,15.57
2023-02-13T05:10:43.294Z,12.25
2023-02-13T05:13:09.897Z,15.27
2023-02-13T05:15:36.668Z,11.38
2023-02-13T05:18:03.305Z,12.25
2023-02-13T05:20:29.858Z,11.50
2023-02-13T05:23:14.624Z,9.45
2023-02-13T05:25:42.191Z,9.63
2023-02-13T05:28:27.383Z,13.73
2023-02-13T05:30:54.142Z,8.35
2023-02-13T05:33:20.824Z,9.52
2023-02-13T05:35:47.449Z,11.50
2023-02-13T05:38:14.232Z,10.15
2023-02-13T05:40:41.067Z,11.23
2023-02-13T05:43:07.616Z,10.10
2023-02-13T05:45:34.194Z,11.38
2023-02-13T05:48:00.852Z,12.77
2023-02-13T05:50:27.534Z,14.40
2023-02-13T05:52:54.215Z,13.93
2023-02-13T05:55:21.508Z,28.58
2023-02-13T05:57:48.246Z,20.77
2023-02-13T06:00:15.657Z,14.52
2023-02-13T06:02:42.280Z,12.45
2023-02-13T06:05:08.942Z,13.40
2023-02-13T06:07:35.740Z,9.90
2023-02-13T06:10:02.318Z,10.07
2023-02-13T06:12:29.345Z,12.60
2023-02-13T06:14:56.434Z,11.95
2023-02-13T06:17:23.055Z,12.38
2023-02-13T06:19:49.622Z,16.92
2023-02-13T06:22:16.604Z,11.85
2023-02-13T06:24:43.178Z,15.60
2023-02-13T06:27:09.764Z,17.17
2023-02-13T06:29:36.684Z,11.90
2023-02-13T06:32:03.458Z,19.50
2023-02-13T06:34:30.198Z,22.08
2023-02-13T06:36:56.800Z,19.08
2023-02-13T06:39:23.380Z,17.25
2023-02-13T06:41:49.992Z,18.48
2023-02-13T06:44:16.545Z,20.92
2023-02-13T06:46:43.357Z,26.42
2023-02-13T06:49:10.074Z,24.15
2023-02-13T06:51:36.663Z,26.27
2023-02-13T06:54:03.430Z,29.40
2023-02-13T06:56:30.464Z,25.83
2023-02-13T06:58:57.057Z,26.95
2023-02-13T07:01:23.737Z,25.15
2023-02-13T07:03:50.477Z,25.45
2023-02-13T07:06:21.642Z,23.80
2023-02-13T07:08:48.601Z,27.13
2023-02-13T07:11:23.189Z,27.90
2023-02-13T07:13:49.965Z,24.17
2023-02-13T07:16:16.979Z,27.85
2023-02-13T07:18:43.702Z,23.63
2023-02-13T07:21:10.324Z,28.10
2023-02-13T07:23:37.131Z,26.30
2023-02-13T07:26:03.959Z,28.17
2023-02-13T07:28:30.692Z,24.88
2023-02-13T07:30:58.016Z,24.42
2023-02-13T07:33:24.804Z,25.42
2023-02-13T07:35:53.357Z,27.02
2023-02-13T07:38:19.988Z,29.55
2023-02-13T07:40:46.687Z,23.10
2023-02-13T07:43:13.592Z,27.13
2023-02-13T07:45:40.280Z,23.92
2023-02-13T07:48:06.962Z,24.75
2023-02-13T07:50:33.550Z,21.95
2023-02-13T07:53:02.036Z,24.60
2023-02-13T07:55:30.174Z,24.05
2023-02-13T07:57:57.220Z,25.90
2023-02-13T08:00:23.901Z,24.60
2023-02-13T08:02:50.687Z,24.60
2023-02-13T08:05:17.309Z,23.10
2023-02-13T08:07:44.292Z,21.98
2023-02-13T08:10:32.913Z,21.80
2023-02-13T08:12:59.994Z,22.77
2023-02-13T08:15:26.587Z,22.45
2023-02-13T08:17:53.192Z,19.77
2023-02-13T08:20:20.127Z,20.50
2023-02-13T08:22:46.718Z,24.02
2023-02-13T08:25:13.775Z,21.20
2023-02-13T08:27:40.331Z,23.45
2023-02-13T08:30:07.686Z,17.70
2023-02-13T08:32:48.323Z,20.25
2023-02-13T08:35:18.785Z,19.35
2023-02-13T08:37:46.679Z,22.75
2023-02-13T08:40:14.781Z,16.75
2023-02-13T08:42:41.734Z,18.08
2023-02-13T08:45:10.572Z,18.35
2023-02-13T08:47:39.110Z,21.45
2023-02-13T08:50:06.777Z,18.75
2023-02-13T08:52:35.573Z,17.48
2023-02-13T08:55:03.636Z,15.18
2023-02-13T08:57:31.283Z,21.60
2023-02-13T08:59:57.929Z,19.00
2023-02-13T09:02:24.659Z,17.02
2023-02-13T09:04:51.501Z,15.65
2023-02-13T09:07:18.193Z,22.38
2023-02-13T09:09:45.327Z,21.67
2023-02-13T09:12:13.531Z,18.40
2023-02-13T09:14:40.774Z,18.58
2023-02-13T09:17:07.391Z,20.35
2023-02-13T09:19:34.280Z,19.48
2023-02-13T09:22:00.892Z,18.15
2023-02-13T09:24:27.564Z,22.15
2023-02-13T09:26:54.200Z,23.98
2023-02-13T09:29:20.867Z,18.85
2023-02-13T09:31:47.645Z,23.05
2023-02-13T09:34:14.450Z,20.90
2023-02-13T09:36:41.028Z,23.38
2023-02-13T09:39:07.622Z,20.02
2023-02-13T09:41:43.902Z,21.98
2023-02-13T09:44:34.101Z,22.15
2023-02-13T09:47:25.142Z,23.23
2023-02-13T09:50:00.727Z,24.48
2023-02-13T09:52:32.185Z,22.52
2023-02-13T09:54:58.952Z,30.03
2023-02-13T09:57:33.618Z,27.02
2023-02-13T10:00:32.712Z,23.52
2023-02-13T10:02:59.465Z,24.08
2023-02-13T10:05:40.981Z,26.98
2023-02-13T10:08:35.790Z,25.10
2023-02-13T10:11:29.383Z,25.08
2023-02-13T10:14:01.184Z,33.50
2023-02-13T10:16:35.673Z,24.92
2023-02-13T10:19:13.667Z,24.10
2023-02-13T10:21:52.963Z,23.83
2023-02-13T10:24:35.853Z,27.02
2023-02-13T10:27:12.423Z,22.70
2023-02-13T10:30:05.559Z,21.38
2023-02-13T10:33:18.825Z,21.90
2023-02-13T10:35:52.499Z,27.52
2023-02-13T10:38:21.717Z,24.48
2023-02-13T10:41:14.228Z,23.75
2023-02-13T10:44:18.126Z,22.23
2023-02-13T10:47:06.106Z,22.95
2023-02-13T10:49:44.888Z,18.45
2023-02-13T10:52:39.973Z,18.80
2023-02-13T10:55:09.797Z,24.98
2023-02-13T10:57:58.007Z,21.00
2023-02-13T11:00:56.143Z,19.85
2023-02-13T11:03:25.620Z,20.27
2023-02-13T11:05:54.126Z,23.73
2023-02-13T11:08:23.110Z,28.10
2023-02-13T11:10:50.732Z,22.20
2023-02-13T11:13:23.635Z,21.50
2023-02-13T11:16:05.444Z,21.55
2023-02-13T11:18:35.250Z,20.30
2023-02-13T11:21:18.613Z,22.67
2023-02-13T11:23:49.911Z,22.42
2023-02-13T11:26:29.620Z,23.15
2023-02-13T11:29:16.122Z,20.17
2023-02-13T11:31:42.834Z,23.17
2023-02-13T11:34:25.647Z,21.42
2023-02-13T11:36:54.488Z,23.33
2023-02-13T11:39:27.096Z,21.23
2023-02-13T11:41:53.719Z,18.95
2023-02-13T11:44:32.039Z,23.02
2023-02-13T11:47:01.262Z,21.08
2023-02-13T11:49:35.469Z,23.77
2023-02-13T11:52:04.864Z,18.80
2023-02-13T11:54:39.259Z,23.27
2023-02-13T11:57:31.024Z,27.35
2023-02-13T11:59:58.779Z,22.03
2023-02-13T12:02:28.640Z,22.65
2023-02-13T12:05:16.877Z,21.52
2023-02-13T12:07:44.530Z,21.00
2023-02-13T12:10:32.563Z,20.02
2023-02-13T12:13:21.767Z,20.65
2023-02-13T12:16:02.506Z,17.90
2023-02-13T12:18:37.556Z,22.65
2023-02-13T12:21:13.223Z,18.70
2023-02-13T12:23:51.627Z,20.23
2023-02-13T12:26:23.454Z,22.25
2023-02-13T12:29:14.708Z,20.52
2023-02-13T12:31:53.427Z,23.60
2023-02-13T12:34:20.039Z,21.85
2023-02-13T12:37:14.468Z,21.08
2023-02-13T12:40:13.287Z,23.00
2023-02-13T12:43:04.772Z,22.38
2023-02-13T12:45:42.325Z,24.17
2023-02-13T12:48:30.967Z,23.00
2023-02-13T12:51:09.068Z,22.48
2023-02-13T12:53:56.456Z,20.25
2023-02-13T12:56:42.307Z,23.05
2023-02-13T12:59:08.890Z,20.75
2023-02-13T13:01:43.751Z,20.80
2023-02-13T13:04:27.133Z,22.88
2023-02-13T13:06:53.714Z,23.50
2023-02-13T13:09:49.060Z,25.65
2023-02-13T13:12:38.461Z,24.25
2023-02-13T13:15:08.017Z,23.73
2023-02-13T13:17:56.322Z,24.05
2023-02-13T13:20:34.109Z,26.17
2023-02-13T13:23:10.650Z,28.27
2023-02-13T13:25:57.711Z,27.20
2023-02-13T13:28:34.951Z,25.77
2023-02-13T13:31:03.191Z,22.23
2023-02-13T13:33:30.955Z,25.23
2023-02-13T13:36:25.457Z,29.77
2023-02-13T13:39:21.663Z,26.65
2023-02-13T13:42:06.968Z,26.42
2023-02-13T13:44:42.452Z,26.25
2023-02-13T13:47:30.283Z,24.65
2023-02-13T13:49:59.898Z,27.98
2023-02-13T13:52:33.116Z,27.67
2023-02-13T13:55:02.611Z,30.90
2023-02-13T13:57:41.463Z,27.20
2023-02-13T14:00:28.953Z,28.58
2023-02-13T14:02:58.555Z,27.80
2023-02-13T14:05:25.067Z,28.92
2023-02-13T14:08:04.298Z,23.27
2023-02-13T14:10:30.851Z,31.25
2023-02-13T14:12:57.426Z,26.27
2023-02-13T14:15:44.471Z,26.00
2023-02-13T14:18:13.777Z,26.10
2023-02-13T14:20:52.786Z,26.75
2023-02-13T14:23:40.606Z,25.77
2023-02-13T14:26:13.241Z,31.73
2023-02-13T14:28:42.698Z,25.15
2023-02-13T14:31:23.541Z,30.25
2023-02-13T14:34:06.799Z,27.88
2023-02-13T14:36:36.436Z,27.65
2023-02-13T14:39:23.725Z,22.65
2023-02-13T14:41:54.181Z,24.45
2023-02-13T14:44:42.414Z,27.15
2023-02-13T14:47:24.155Z,27.92
2023-02-13T14:49:51.880Z,23.42
2023-02-13T14:52:26.448Z,29.48
2023-02-13T14:55:20.728Z,29.17
2023-02-13T14:57:52.401Z,32.25
2023-02-13T15:00:39.003Z,27.67
2023-02-13T15:03:25.160Z,51.90
2023-02-13T15:05:54.670Z,25.45
2023-02-13T15:08:25.907Z,34.97
2023-02-13T15:10:55.381Z,22.92
2023-02-13T15:13:31.619Z,26.15
2023-02-13T15:16:06.039Z,24.65
2023-02-13T15:18:52.868Z,25.55
2023-02-13T15:21:23.028Z,30.25
2023-02-13T15:23:52.602Z,35.95
2023-02-13T15:26:24.685Z,26.15
2023-02-13T15:29:02.924Z,23.63
2023-02-13T15:31:36.746Z,29.85
2023-02-13T15:34:03.422Z,27.70
2023-02-13T15:36:41.144Z,24.48
2023-02-13T15:39:10.418Z,28.13
2023-02-13T15:41:50.165Z,26.73
2023-02-13T15:44:28.367Z,27.80
2023-02-13T15:47:07.444Z,27.15
2023-02-13T15:49:45.331Z,27.83
2023-02-13T15:52:34.177Z,30.00
2023-02-13T15:55:01.213Z,25.40
2023-02-13T15:57:28.746Z,24.58
2023-02-13T15:59:57.548Z,30.02
2023-02-13T16:02:33.697Z,24.23
2023-02-13T16:05:02.214Z,25.77
2023-02-13T16:07:30.618Z,23.52
2023-02-13T16:10:24.864Z,25.77
2023-02-13T16:12:51.549Z,27.27
2023-02-13T16:15:21.082Z,25.67
2023-02-13T16:17:48.636Z,28.65
2023-02-13T16:20:25.674Z,26.25
2023-02-13T16:23:02.836Z,34.10
2023-02-13T16:25:37.305Z,23.55
2023-02-13T16:28:03.888Z,25.88
2023-02-13T16:31:02.940Z,25.33
2023-02-13T16:33:31.972Z,27.45
2023-02-13T16:36:01.006Z,26.08
2023-02-13T16:38:27.669Z,21.70
2023-02-13T16:40:56.435Z,25.67
2023-02-13T16:43:35.470Z,24.02
2023-02-13T16:46:31.998Z,25.40
2023-02-13T16:49:01.635Z,24.77
2023-02-13T16:51:38.815Z,24.63
2023-02-13T16:54:11.228Z,25.00
2023-02-13T16:56:55.993Z,26.90
2023-02-13T16:59:28.022Z,22.55
2023-02-13T17:02:03.705Z,28.48
2023-02-13T17:04:30.449Z,24.17
2023-02-13T17:06:57.418Z,31.02
2023-02-13T17:09:24.176Z,26.25
2023-02-13T17:11:53.279Z,28.25
2023-02-13T17:14:20.546Z,24.50
2023-02-13T17:16:48.719Z,27.60
2023-02-13T17:19:15.345Z,26.08
2023-02-13T17:21:42.389Z,29.00
2023-02-13T17:24:16.897Z,31.25
2023-02-13T17:26:43.936Z,28.67
2023-02-13T17:29:10.629Z,26.70
2023-02-13T17:31:37.319Z,30.60
2023-02-13T17:34:05.182Z,30.73
2023-02-13T17:36:31.808Z,28.85
2023-02-13T17:38:58.423Z,28.65
2023-02-13T17:41:25.013Z,30.48
2023-02-13T17:43:51.575Z,25.45
2023-02-13T17:46:18.321Z,34.13
2023-02-13T17:48:44.942Z,30.20
2023-02-13T17:51:14.334Z,29.65
2023-02-13T17:53:41.020Z,25.35
2023-02-13T17:56:07.706Z,29.55
2023-02-13T17:58:34.320Z,27.40
2023-02-13T18:01:01.426Z,27.92
2023-02-13T18:03:28.411Z,31.08
2023-02-13T18:05:55.038Z,28.90
2023-02-13T18:08:21.672Z,32.05
2023-02-13T18:10:48.355Z,30.65
2023-02-13T18:13:15.172Z,25.23
2023-02-13T18:15:44.210Z,28.52
2023-02-13T18:18:12.809Z,24.85
2023-02-13T18:20:39.440Z,28.75
2023-02-13T18:23:07.183Z,29.35
2023-02-13T18:25:34.186Z,26.23
2023-02-13T18:28:00.895Z,26.67
2023-02-13T18:30:27.877Z,26.23
2023-02-13T18:32:55.687Z,27.25
2023-02-13T18:35:23.251Z,26.90
2023-02-13T18:37:50.856Z,29.10
2023-02-13T18:40:17.925Z,39.83
2023-02-13T18:42:44.965Z,33.10
2023-02-13T18:45:12.207Z,31.35
2023-02-13T18:47:40.013Z,34.15
2023-02-13T18:50:07.391Z,32.40
2023-02-13T18:52:35.149Z,30.35
2023-02-13T18:55:01.823Z,27.95
2023-02-13T18:57:28.409Z,33.28
2023-02-13T18:59:55.064Z,33.58
2023-02-13T19:02:21.687Z,31.23
2023-02-13T19:04:48.551Z,33.17
2023-02-13T19:07:38.270Z,34.35
2023-02-13T19:10:33.816Z,30.45
2023-02-13T19:13:25.628Z,34.78
2023-02-13T19:15:54.817Z,34.77
2023-02-13T19:18:23.679Z,32.90
2023-02-13T19:20:50.515Z,30.27
2023-02-13T19:23:17.197Z,32.33
2023-02-13T19:25:46.362Z,31.10
2023-02-13T19:28:13.000Z,34.63
2023-02-13T19:30:39.614Z,32.35
2023-02-13T19:33:06.173Z,36.42
2023-02-13T19:35:32.782Z,36.22
2023-02-13T19:37:59.380Z,32.45
2023-02-13T19:40:26.124Z,36.00
2023-02-13T19:42:52.763Z,32.47
2023-02-13T19:45:19.359Z,39.20
2023-02-13T19:47:45.949Z,42.70
2023-02-13T19:50:12.509Z,40.90
2023-02-13T19:52:39.167Z,41.05
2023-02-13T19:55:06.028Z,40.60
2023-02-13T19:57:32.607Z,39.35
2023-02-13T20:00:01.957Z,36.55
2023-02-13T20:02:28.622Z,35.17
2023-02-13T20:04:55.246Z,33.55
2023-02-13T20:07:22.304Z,43.92
2023-02-13T20:09:48.902Z,33.85
2023-02-13T20:12:15.488Z,36.22
2023-02-13T20:14:42.060Z,30.75
2023-02-13T20:17:08.766Z,34.28
2023-02-13T20:19:35.404Z,36.90
2023-02-13T20:22:01.942Z,36.42
2023-02-13T20:24:28.608Z,36.30
2023-02-13T20:26:58.822Z,35.30
2023-02-13T20:29:25.517Z,33.17
2023-02-13T20:31:52.336Z,34.15
2023-02-13T20:34:19.034Z,36.80
2023-02-13T20:36:45.636Z,34.35
2023-02-13T20:39:12.260Z,36.35
2023-02-13T20:41:39.062Z,34.08
2023-02-13T20:44:08.546Z,34.50
2023-02-13T20:46:37.112Z,32.72
2023-02-13T20:49:04.233Z,36.90
2023-02-13T20:51:31.214Z,37.75
2023-02-13T20:53:59.053Z,38.47
2023-02-13T20:56:28.236Z,39.28
2023-02-13T20:58:59.617Z,35.67
2023-02-13T21:01:30.899Z,39.92
2023-02-13T21:03:57.760Z,39.92
2023-02-13T21:06:28.817Z,36.35
2023-02-13T21:08:55.850Z,40.40
2023-02-13T21:11:23.312Z,41.00
2023-02-13T21:13:50.491Z,36.97
2023-02-13T21:16:26.958Z,39.83
2023-02-13T21:18:56.703Z,44.58
2023-02-13T21:21:25.438Z,43.47
2023-02-13T21:23:55.741Z,44.15
2023-02-13T21:26:23.091Z,40.08
2023-02-13T21:28:50.302Z,44.28
2023-02-13T21:31:27.886Z,43.42
2023-02-13T21:33:58.983Z,44.97
2023-02-13T21:36:25.618Z,43.72
2023-02-13T21:38:52.193Z,39.83
2023-02-13T21:41:19.579Z,40.95
2023-02-13T21:43:49.045Z,44.95
2023-02-13T21:46:25.961Z,44.60
2023-02-13T21:48:54.609Z,44.83
2023-02-13T21:51:22.515Z,39.72
2023-02-13T21:53:49.863Z,38.63
2023-02-13T21:56:22.105Z,45.88
2023-02-13T21:58:49.195Z,44.55
2023-02-13T22:01:26.551Z,45.33
2023-02-13T22:03:57.830Z,43.90
2023-02-13T22:06:26.079Z,46.80
2023-02-13T22:08:58.202Z,43.83
2023-02-13T22:11:25.260Z,46.08
2023-02-13T22:13:55.562Z,47.35
2023-02-13T22:16:22.781Z,46.63
2023-02-13T22:18:50.641Z,48.17
2023-02-13T22:21:21.298Z,48.72
2023-02-13T22:23:49.434Z,52.60
2023-02-13T22:26:29.284Z,47.75
2023-02-13T22:29:00.182Z,42.65
2023-02-13T22:31:27.970Z,53.00
2023-02-13T22:34:05.332Z,57.13
2023-02-13T22:36:34.759Z,50.33
2023-02-13T22:39:02.330Z,55.00
2023-02-13T22:41:30.163Z,54.40
2023-02-13T22:43:57.356Z,51.90
2023-02-13T22:46:59.243Z,51.55
2023-02-13T22:49:29.753Z,59.08
2023-02-13T22:52:12.657Z,50.95
2023-02-13T22:54:55.792Z,54.90
2023-02-13T22:57:34.678Z,52.65
2023-02-13T23:00:03.834Z,52.88
2023-02-13T23:02:46.869Z,58.60
2023-02-13T23:05:42.348Z,52.63
2023-02-13T23:08:34.979Z,49.85
2023-02-13T23:11:42.829Z,54.90
2023-02-13T23:14:17.725Z,58.55
2023-02-13T23:17:21.950Z,56.70
2023-02-13T23:23:11.251Z,49.08
2023-02-13T23:25:48.218Z,49.47
2023-02-13T23:28:29.138Z,53.60
2023-02-13T23:30:56.084Z,53.45
2023-02-13T23:33:23.202Z,47.83
2023-02-13T23:35:50.100Z,51.40
2023-02-13T23:38:17.752Z,54.20
2023-02-13T23:40:44.672Z,45.78
2023-02-13T23:43:12.589Z,46.38
2023-02-13T23:45:39.696Z,53.03
2023-02-13T23:48:07.552Z,47.35
2023-02-13T23:50:34.896Z,46.15
2023-02-13T23:53:02.748Z,51.92
2023-02-13T23:55:30.689Z,48.58
2023-02-13T23:57:58.424Z,48.83
